Time;durP1;ratioP1;P1;durP2;ratioP2;P2;SDS_P1;SDS_P2;PMS_P1;PMS_P2;Temp;Humidity;BMP_temperature;BMP_pressure;BME280_temperature;BME280_humidity;BME280_pressure;Samples;Min_cycle;Max_cycle;Signal;HPM_P1;HPM_P2
2021/05/25 00:00:14;;;;;;;1.73;0.55;;;;;;;8.20;79.79;98287.03;5047741;28;20017;-64
2021/05/25 00:02:40;;;;;;;4.38;0.50;;;;;;;8.27;79.78;98288.72;5052501;28;20086;-64
2021/05/25 00:05:07;;;;;;;1.42;0.60;;;;;;;8.36;78.41;98296.41;5049958;28;20014;-64
2021/05/25 00:07:32;;;;;;;1.10;0.38;;;;;;;8.32;78.86;98294.75;5047725;28;20017;-64
2021/05/25 00:09:58;;;;;;;3.88;0.43;;;;;;;8.35;78.70;98305.19;5049855;28;20354;-64
2021/05/25 00:12:23;;;;;;;0.77;0.50;;;;;;;8.44;79.15;98297.16;5051231;28;20087;-64
2021/05/25 00:14:49;;;;;;;0.43;0.40;;;;;;;8.52;79.35;98294.44;5048615;28;20334;-64
2021/05/25 00:17:14;;;;;;;5.78;0.63;;;;;;;8.49;78.67;98303.19;5048644;28;20336;-64
2021/05/25 00:19:40;;;;;;;2.05;0.50;;;;;;;8.59;79.08;98299.56;5057035;28;20155;-64
2021/05/25 00:22:05;;;;;;;2.20;0.65;;;;;;;8.56;78.55;98304.84;5065787;28;20031;-64
2021/05/25 00:24:32;;;;;;;2.25;0.70;;;;;;;8.48;79.11;98298.00;5063951;28;20213;-64
2021/05/25 00:26:57;;;;;;;5.05;0.65;;;;;;;8.30;78.28;98299.16;5062390;28;20032;-64
2021/05/25 00:29:24;;;;;;;2.58;0.70;;;;;;;8.27;77.94;98300.94;5067228;28;20017;-64
2021/05/25 00:31:49;;;;;;;2.33;0.60;;;;;;;8.20;78.48;98299.28;5065788;28;20017;-64
2021/05/25 00:34:15;;;;;;;2.83;0.55;;;;;;;8.18;78.77;98296.69;5063921;28;20070;-64
2021/05/25 00:36:40;;;;;;;2.20;0.50;;;;;;;8.28;77.04;98298.31;5067075;28;20032;-64
2021/05/25 00:39:06;;;;;;;2.38;0.55;;;;;;;8.20;77.45;98302.75;5067090;28;20021;-64
2021/05/25 00:41:34;;;;;;;3.47;0.70;;;;;;;8.11;77.72;98291.56;5066992;28;20028;-64
2021/05/25 00:44:00;;;;;;;2.92;1.10;;;;;;;8.09;77.94;98301.19;5066933;28;20027;-64
2021/05/25 00:46:25;;;;;;;0.90;0.38;;;;;;;8.09;78.66;98296.81;5065521;28;20029;-64
2021/05/25 00:48:51;;;;;;;3.42;0.90;;;;;;;8.12;77.70;98288.91;5065188;28;20088;-64
2021/05/25 00:51:16;;;;;;;2.80;0.55;;;;;;;8.20;77.79;98292.25;5064935;28;20016;-64
2021/05/25 00:53:42;;;;;;;1.80;0.85;;;;;;;8.27;78.44;98286.09;5064844;28;20045;-64
2021/05/25 00:56:08;;;;;;;3.78;0.52;;;;;;;8.17;78.27;98289.69;5063640;28;20025;-64
2021/05/25 00:58:35;;;;;;;4.18;0.60;;;;;;;8.23;77.28;98289.63;5064490;28;20089;-64
2021/05/25 01:01:01;;;;;;;0.77;0.40;;;;;;;8.26;77.28;98288.75;5065699;28;20025;-64
2021/05/25 01:03:26;;;;;;;1.75;0.60;;;;;;;8.20;77.60;98287.03;5064875;28;20021;-64
2021/05/25 01:05:52;;;;;;;1.98;0.65;;;;;;;8.26;76.39;98276.47;5064891;28;20019;-64
2021/05/25 01:08:18;;;;;;;2.28;0.43;;;;;;;8.18;77.30;98290.56;5066485;28;20031;-64
2021/05/25 01:11:20;;;;;;;2.60;0.52;;;;;;;8.10;76.73;98276.72;5063964;28;20246;-64
2021/05/25 01:13:47;;;;;;;2.97;0.80;;;;;;;8.00;77.81;98289.09;5065439;28;20040;-64
2021/05/25 01:16:13;;;;;;;2.47;0.43;;;;;;;7.92;78.00;98285.72;5063025;28;20021;-64
2021/05/25 01:18:39;;;;;;;1.25;0.60;;;;;;;7.89;77.76;98288.41;5066302;28;20320;-64
2021/05/25 01:21:07;;;;;;;6.97;1.27;;;;;;;7.80;77.67;98282.41;5064131;28;20041;-64
2021/05/25 01:23:34;;;;;;;2.03;0.55;;;;;;;7.82;78.41;98286.72;5054790;28;20020;-64
2021/05/25 01:26:01;;;;;;;4.47;0.63;;;;;;;7.82;78.31;98280.63;5047238;28;20061;-64
2021/05/25 01:28:26;;;;;;;1.17;0.40;;;;;;;7.85;77.81;98281.44;5063325;28;20023;-64
2021/05/25 01:30:54;;;;;;;3.55;0.73;;;;;;;7.77;78.54;98285.94;5061182;28;20255;-64
2021/05/25 01:33:23;;;;;;;3.70;0.73;;;;;;;7.85;78.08;98285.84;5066007;28;20023;-64
2021/05/25 01:35:48;;;;;;;3.13;0.45;;;;;;;7.88;78.72;98281.41;5065884;28;20040;-64
2021/05/25 01:38:15;;;;;;;3.40;0.68;;;;;;;7.88;77.67;98284.03;5064313;28;20028;-64
2021/05/25 01:40:42;;;;;;;2.70;0.65;;;;;;;7.98;77.62;98283.00;5064247;28;20387;-64
2021/05/25 01:43:09;;;;;;;4.47;0.57;;;;;;;8.01;78.70;98288.19;5061213;28;20032;-64
2021/05/25 01:45:35;;;;;;;1.10;0.32;;;;;;;7.98;78.54;98290.84;5064190;28;20013;-64
2021/05/25 01:48:03;;;;;;;1.40;0.50;;;;;;;8.07;78.36;98302.97;5064104;28;20020;-64
2021/05/25 01:50:29;;;;;;;6.28;0.93;;;;;;;8.04;76.92;98296.00;5064023;28;20016;-64
2021/05/25 01:53:02;;;;;;;1.38;0.47;;;;;;;8.05;77.82;98295.16;5060806;28;20035;-64
2021/05/25 01:55:48;;;;;;;3.78;0.52;;;;;;;8.13;77.30;98292.41;5062367;28;20382;-64
2021/05/25 01:58:25;;;;;;;3.00;0.85;;;;;;;8.02;77.16;98297.81;5063982;28;20017;-64
2021/05/25 02:00:56;;;;;;;0.70;0.40;;;;;;;7.96;77.40;98294.41;5062472;28;20020;-64
2021/05/25 02:03:22;;;;;;;3.13;0.60;;;;;;;7.94;77.11;98293.56;5061919;28;20331;-64
2021/05/25 02:05:48;;;;;;;2.20;0.45;;;;;;;7.91;77.43;98302.31;5064228;28;20024;-64
2021/05/25 02:08:15;;;;;;;2.20;0.63;;;;;;;7.84;77.83;98295.44;5062136;28;20016;-64
2021/05/25 02:10:49;;;;;;;4.00;0.88;;;;;;;7.64;78.48;98302.72;5063687;28;20013;-64
2021/05/25 02:13:18;;;;;;;2.88;0.60;;;;;;;7.61;78.49;98313.22;5060457;28;20028;-64
2021/05/25 02:15:46;;;;;;;2.50;0.90;;;;;;;7.60;78.93;98308.00;5063476;28;20029;-64
2021/05/25 02:18:15;;;;;;;3.33;0.73;;;;;;;7.65;79.22;98304.44;5063522;28;20047;-64
2021/05/25 02:20:42;;;;;;;2.03;0.70;;;;;;;7.73;78.71;98315.69;5063497;28;20021;-64
2021/05/25 02:23:08;;;;;;;5.43;0.90;;;;;;;7.77;79.05;98314.75;5061814;28;20029;-64
2021/05/25 02:25:34;;;;;;;1.83;0.60;;;;;;;7.88;79.52;98320.69;5063239;28;20403;-64
2021/05/25 02:28:02;;;;;;;2.08;0.60;;;;;;;7.99;78.98;98315.31;5063838;28;20032;-64
2021/05/25 02:30:28;;;;;;;4.18;0.73;;;;;;;8.01;78.08;98314.41;5064908;28;20032;-64
2021/05/25 02:32:57;;;;;;;3.97;0.68;;;;;;;8.04;78.32;98316.97;5064885;28;20036;-64
2021/05/25 02:35:23;;;;;;;5.07;0.90;;;;;;;8.04;78.44;98319.59;5064716;28;20029;-64
2021/05/25 02:37:48;;;;;;;3.63;0.70;;;;;;;8.08;78.36;98321.31;5064785;28;20031;-64
2021/05/25 02:40:15;;;;;;;3.42;0.68;;;;;;;8.17;78.75;98323.75;5065020;28;20020;-64
2021/05/25 02:42:40;;;;;;;1.02;0.57;;;;;;;8.09;78.73;98335.25;5062744;28;20059;-64
2021/05/25 02:45:07;;;;;;;2.05;0.47;;;;;;;8.12;78.27;98328.22;5044709;28;20029;-64
2021/05/25 02:47:32;;;;;;;4.40;0.68;;;;;;;8.10;78.13;98335.25;5045781;28;20029;-64
2021/05/25 02:50:06;;;;;;;1.17;0.50;;;;;;;8.19;77.95;98334.22;5046885;28;20071;-64
2021/05/25 02:52:33;;;;;;;3.20;0.60;;;;;;;8.25;78.58;98340.31;5045698;28;20017;-64
2021/05/25 02:54:59;;;;;;;3.92;0.60;;;;;;;8.26;77.68;98344.66;5049009;28;20035;-64
2021/05/25 02:57:24;;;;;;;4.75;0.63;;;;;;;8.27;77.80;98343.78;5045864;28;20048;-64
2021/05/25 02:59:50;;;;;;;4.65;0.70;;;;;;;8.26;77.46;98342.03;5048712;28;20037;-64
2021/05/25 03:02:15;;;;;;;1.52;0.77;;;;;;;8.23;77.29;98346.47;5061029;28;20058;-64
2021/05/25 03:04:40;;;;;;;1.77;0.70;;;;;;;8.28;77.99;98345.50;5045519;28;20213;-64
2021/05/25 03:07:06;;;;;;;1.13;0.60;;;;;;;8.26;78.41;98346.41;5046615;28;20028;-64
2021/05/25 03:09:31;;;;;;;2.08;0.57;;;;;;;8.15;78.66;98333.44;5047984;28;20021;-64
2021/05/25 03:11:56;;;;;;;3.13;0.80;;;;;;;8.25;77.17;98337.69;5046563;28;20021;-64
2021/05/25 03:14:23;;;;;;;3.13;0.65;;;;;;;8.22;78.28;98336.84;5046456;28;20026;-64
2021/05/25 03:16:49;;;;;;;3.00;0.73;;;;;;;8.20;77.88;98342.06;5046618;28;20055;-64
2021/05/25 03:19:14;;;;;;;3.60;0.60;;;;;;;8.25;77.04;98345.53;5045272;28;20025;-64
2021/05/25 03:21:40;;;;;;;3.80;0.57;;;;;;;8.29;77.18;98331.50;5046366;28;20325;-64
2021/05/25 03:24:06;;;;;;;3.55;1.20;;;;;;;8.41;76.69;98339.19;5045609;28;20034;-64
2021/05/25 03:26:31;;;;;;;1.77;0.50;;;;;;;8.37;76.92;98339.25;5045643;28;20021;-64
2021/05/25 03:28:56;;;;;;;3.00;0.77;;;;;;;8.30;76.90;98343.72;5044028;28;20088;-64
2021/05/25 03:31:22;;;;;;;5.30;0.50;;;;;;;8.31;77.11;98350.69;5044010;28;20084;-64
2021/05/25 03:33:47;;;;;;;4.03;0.77;;;;;;;8.30;76.60;98346.34;5043509;28;20029;-64
2021/05/25 03:36:13;;;;;;;3.35;0.73;;;;;;;8.41;76.40;98347.03;5043909;28;20028;-64
2021/05/25 03:38:38;;;;;;;4.82;1.17;;;;;;;8.45;77.32;98338.22;5043887;28;20217;-64
2021/05/25 03:41:03;;;;;;;3.80;0.68;;;;;;;8.40;76.75;98344.44;5044146;28;20025;-64
2021/05/25 03:43:29;;;;;;;3.75;0.63;;;;;;;8.38;76.45;98357.56;5043903;28;20026;-64
2021/05/25 03:45:54;;;;;;;8.77;0.70;;;;;;;8.40;76.31;98345.31;5044144;28;20031;-64
2021/05/25 03:48:19;;;;;;;2.78;0.60;;;;;;;8.42;76.45;98354.00;5049160;28;20025;-64
2021/05/25 03:50:45;;;;;;;2.35;0.50;;;;;;;8.31;75.93;98350.69;5044957;28;20021;-64
2021/05/25 03:53:11;;;;;;;6.50;0.90;;;;;;;8.40;76.35;98354.94;5044930;28;20035;-64
2021/05/25 03:55:47;;;;;;;2.70;0.60;;;;;;;8.32;76.82;98347.19;5044799;28;20025;-64
2021/05/25 04:00:57;;;;;;;3.05;0.70;;;;;;;8.38;77.41;98347.09;5046386;28;20367;-64
2021/05/25 04:03:23;;;;;;;1.50;0.50;;;;;;;8.33;77.06;98356.75;5061798;28;20029;-64
2021/05/25 04:05:49;;;;;;;4.60;1.02;;;;;;;8.29;78.01;98352.47;5060631;28;20020;-64
2021/05/25 04:08:16;;;;;;;2.60;0.70;;;;;;;8.34;77.73;98355.03;5059150;28;20309;-64
2021/05/25 04:10:42;;;;;;;4.75;0.93;;;;;;;8.19;78.44;98361.31;5047040;28;20032;-64
2021/05/25 04:13:07;;;;;;;1.05;0.40;;;;;;;8.29;78.11;98352.47;5044907;28;20048;-64
2021/05/25 04:15:34;;;;;;;3.95;0.68;;;;;;;8.23;78.24;98347.31;5061938;28;20216;-64
2021/05/25 04:18:00;;;;;;;2.65;0.70;;;;;;;8.20;79.19;98368.28;5063668;28;20028;-64
2021/05/25 04:20:25;;;;;;;1.83;0.55;;;;;;;8.17;79.12;98355.22;5063480;28;20041;-64
2021/05/25 04:22:51;;;;;;;4.50;0.73;;;;;;;8.22;79.21;98369.19;5063411;28;20036;-64
2021/05/25 04:25:17;;;;;;;3.05;0.60;;;;;;;8.22;79.19;98366.56;5063297;28;20033;-64
2021/05/25 04:27:42;;;;;;;1.13;0.63;;;;;;;8.11;79.99;98371.06;5063396;28;20025;-64
2021/05/25 04:30:09;;;;;;;2.45;0.55;;;;;;;8.12;79.04;98364.94;5062330;28;20396;-64
2021/05/25 04:32:35;;;;;;;2.35;0.70;;;;;;;8.19;78.78;98370.94;5063305;28;20037;-64
2021/05/25 04:35:01;;;;;;;3.22;0.80;;;;;;;8.16;79.61;98374.47;5063356;28;20088;-64
2021/05/25 04:37:27;;;;;;;1.52;0.60;;;;;;;8.17;79.53;98384.06;5063338;28;20028;-64
2021/05/25 04:39:52;;;;;;;4.13;0.93;;;;;;;8.24;78.49;98387.50;5063312;28;20063;-64
2021/05/25 04:42:18;;;;;;;2.13;0.75;;;;;;;8.10;79.34;98398.16;5063251;28;20208;-64
2021/05/25 04:44:43;;;;;;;1.98;0.65;;;;;;;8.23;79.98;98389.25;5063658;28;20031;-64
2021/05/25 04:47:09;;;;;;;2.00;0.70;;;;;;;8.23;78.33;98402.38;5066921;28;20071;-64
2021/05/25 04:49:36;;;;;;;4.97;0.98;;;;;;;8.24;79.06;98398.88;5066855;28;20021;-64
2021/05/25 04:52:02;;;;;;;2.38;0.80;;;;;;;8.19;79.58;98399.78;5066896;28;20094;-64
2021/05/25 04:54:28;;;;;;;2.42;0.57;;;;;;;8.27;78.71;98404.06;5066770;28;20380;-64
2021/05/25 04:56:55;;;;;;;2.55;0.60;;;;;;;8.19;79.63;98403.28;5066644;28;20021;-64
2021/05/25 04:59:20;;;;;;;1.77;0.68;;;;;;;8.19;79.27;98405.88;5066669;28;20016;-64
2021/05/25 05:01:45;;;;;;;3.50;0.50;;;;;;;8.16;79.78;98405.94;5066620;28;20027;-64
2021/05/25 05:04:11;;;;;;;1.63;0.70;;;;;;;8.18;79.50;98404.16;5066539;28;20021;-64
2021/05/25 05:06:36;;;;;;;4.88;0.88;;;;;;;8.20;79.74;98410.22;5066558;28;20017;-64
2021/05/25 05:09:02;;;;;;;2.67;0.57;;;;;;;8.17;79.64;98409.44;5066564;28;20020;-64
2021/05/25 05:11:28;;;;;;;1.77;0.45;;;;;;;8.19;79.84;98413.75;5066588;28;20025;-64
2021/05/25 05:13:53;;;;;;;3.15;0.70;;;;;;;8.09;79.62;98401.66;5066395;28;20021;-64
2021/05/25 05:16:18;;;;;;;1.50;0.60;;;;;;;8.10;79.39;98418.28;5066292;28;20020;-64
2021/05/25 05:18:44;;;;;;;2.30;0.70;;;;;;;8.12;79.59;98424.34;5066342;28;20343;-64
2021/05/25 05:21:09;;;;;;;6.05;1.23;;;;;;;8.09;80.34;98427.00;5066284;28;20028;-64
2021/05/25 05:23:35;;;;;;;3.67;0.90;;;;;;;8.15;80.66;98427.81;5066264;28;20376;-64
2021/05/25 05:26:00;;;;;;;5.75;1.10;;;;;;;8.18;80.65;98432.13;5066056;28;20037;-64
2021/05/25 05:28:26;;;;;;;3.28;0.68;;;;;;;8.16;80.80;98440.00;5066129;28;20031;-64
2021/05/25 05:30:51;;;;;;;2.70;0.70;;;;;;;8.11;80.66;98436.59;5066104;28;20020;-64
2021/05/25 05:33:16;;;;;;;3.25;0.80;;;;;;;8.17;80.12;98435.66;5066064;28;20095;-64
2021/05/25 05:35:42;;;;;;;5.85;0.88;;;;;;;8.11;80.98;98446.19;5065930;28;20092;-64
2021/05/25 05:38:07;;;;;;;1.17;0.47;;;;;;;8.11;81.82;98439.22;5065949;28;20043;-64
2021/05/25 05:40:34;;;;;;;2.88;0.65;;;;;;;8.15;81.43;98443.53;5065970;28;20092;-64
2021/05/25 05:43:00;;;;;;;3.95;0.70;;;;;;;8.15;81.84;98454.00;5065963;28;20021;-64
2021/05/25 05:45:26;;;;;;;4.22;1.10;;;;;;;8.09;81.01;98442.72;5065840;28;20028;-64
2021/05/25 05:47:51;;;;;;;2.67;0.85;;;;;;;8.18;82.21;98453.97;5065802;28;20024;-64
2021/05/25 05:50:16;;;;;;;4.07;0.82;;;;;;;8.25;81.06;98450.41;5065756;28;20025;-64
2021/05/25 05:52:42;;;;;;;2.47;0.40;;;;;;;8.07;82.23;98466.31;5065734;28;20201;-64
2021/05/25 05:55:09;;;;;;;3.38;0.73;;;;;;;8.05;81.94;98462.88;5065573;28;20098;-64
2021/05/25 05:57:35;;;;;;;2.42;0.50;;;;;;;8.09;81.93;98469.81;5065351;28;20087;-64
2021/05/25 06:00:00;;;;;;;5.30;0.77;;;;;;;8.11;82.71;98462.81;5065601;28;20025;-64
2021/05/25 06:02:26;;;;;;;3.47;0.70;;;;;;;8.09;82.00;98477.69;5065452;28;20028;-64
2021/05/25 06:04:51;;;;;;;2.60;0.88;;;;;;;8.08;82.51;98475.94;5065461;28;20074;-64
2021/05/25 06:07:17;;;;;;;2.83;1.23;;;;;;;8.16;82.58;98475.81;5065420;28;20079;-64
2021/05/25 06:09:43;;;;;;;0.95;0.55;;;;;;;8.09;82.76;98479.41;5064219;28;20047;-64
2021/05/25 06:12:09;;;;;;;4.32;0.68;;;;;;;8.12;82.33;98482.88;5065313;28;20078;-64
2021/05/25 06:14:35;;;;;;;3.58;0.77;;;;;;;8.21;81.62;98484.53;5065497;28;20251;-64
2021/05/25 06:17:02;;;;;;;5.30;1.13;;;;;;;8.22;82.29;98471.44;5065434;28;20032;-64
2021/05/25 06:19:27;;;;;;;1.13;0.40;;;;;;;8.15;81.20;98474.09;5065190;28;20044;-64
2021/05/25 06:21:53;;;;;;;2.92;0.82;;;;;;;8.09;83.10;98472.44;5065130;28;20025;-64
2021/05/25 06:24:18;;;;;;;1.13;0.50;;;;;;;8.05;82.60;98481.22;5064924;28;20398;-64
2021/05/25 06:26:43;;;;;;;3.30;0.80;;;;;;;8.10;82.80;98482.03;5065058;28;20021;-64
2021/05/25 06:29:10;;;;;;;2.03;0.68;;;;;;;8.05;82.85;98489.09;5065068;28;20024;-64
2021/05/25 06:31:36;;;;;;;2.80;0.70;;;;;;;8.20;82.55;98494.13;5064987;28;20328;-64
2021/05/25 06:34:02;;;;;;;2.45;0.70;;;;;;;8.17;82.77;98488.91;5064885;28;20088;-64
2021/05/25 06:36:27;;;;;;;3.78;0.65;;;;;;;8.17;82.74;98483.69;5065018;28;20029;-64
2021/05/25 06:38:52;;;;;;;2.42;0.98;;;;;;;8.09;81.98;98480.28;5065054;28;20251;-64
2021/05/25 06:41:19;;;;;;;2.58;0.70;;;;;;;8.19;82.14;98492.41;5064776;28;20029;-64
2021/05/25 06:43:44;;;;;;;4.00;0.70;;;;;;;8.20;82.39;98499.38;5064709;28;20244;-64
2021/05/25 06:46:10;;;;;;;2.15;0.73;;;;;;;8.11;81.91;98496.88;5064707;28;20032;-64
2021/05/25 06:48:35;;;;;;;1.95;0.65;;;;;;;8.22;82.31;98497.63;5064591;28;20036;-64
2021/05/25 06:51:06;;;;;;;2.53;0.60;;;;;;;8.15;82.00;98511.69;5064648;28;20025;-64
2021/05/25 06:53:31;;;;;;;1.63;0.60;;;;;;;8.13;82.77;98508.19;5064590;28;20087;-64
2021/05/25 06:55:57;;;;;;;2.10;0.65;;;;;;;8.15;83.30;98522.16;5064431;28;20186;-64
2021/05/25 06:58:22;;;;;;;3.20;0.70;;;;;;;8.11;82.81;98530.09;5064457;28;20036;-64
2021/05/25 07:00:47;;;;;;;3.47;0.80;;;;;;;8.06;84.04;98532.75;5064421;28;20021;-64
2021/05/25 07:03:13;;;;;;;2.95;0.70;;;;;;;8.07;82.92;98534.47;5064325;28;20016;-64
2021/05/25 07:05:38;;;;;;;3.45;0.77;;;;;;;8.04;82.81;98550.25;5064329;28;20032;-64
2021/05/25 07:08:04;;;;;;;7.00;1.00;;;;;;;8.01;83.66;98552.88;5063621;28;20028;-64
2021/05/25 07:10:30;;;;;;;2.08;0.43;;;;;;;8.13;82.92;98544.91;5064366;28;20130;-64
2021/05/25 07:12:55;;;;;;;1.60;0.60;;;;;;;8.13;83.06;98542.28;5064167;28;20312;-64
2021/05/25 07:15:21;;;;;;;0.82;0.40;;;;;;;8.16;82.40;98549.22;5064133;28;20079;-64
2021/05/25 07:17:49;;;;;;;4.20;0.82;;;;;;;8.22;83.51;98557.94;5064162;28;20036;-64
2021/05/25 07:20:15;;;;;;;1.23;0.60;;;;;;;8.20;83.73;98556.19;5064079;28;20185;-64
2021/05/25 07:22:40;;;;;;;2.75;0.88;;;;;;;8.31;83.77;98555.22;5064047;28;20070;-64
2021/05/25 07:25:07;;;;;;;3.38;0.80;;;;;;;8.29;83.06;98556.97;5063909;28;20044;-64
2021/05/25 07:27:33;;;;;;;3.30;0.90;;;;;;;8.40;83.72;98559.47;5063916;28;20056;-64
2021/05/25 07:29:59;;;;;;;2.17;0.70;;;;;;;8.37;83.32;98568.25;5063955;28;20100;-64
2021/05/25 07:32:24;;;;;;;3.50;1.10;;;;;;;8.44;82.53;98564.69;5063994;28;20027;-64
2021/05/25 07:34:50;;;;;;;5.43;1.05;;;;;;;8.40;83.80;98570.84;5063975;28;20036;-64
2021/05/25 07:37:15;;;;;;;5.30;0.90;;;;;;;8.42;83.32;98576.94;5063847;28;20024;-64
2021/05/25 07:39:40;;;;;;;3.67;0.93;;;;;;;8.37;83.44;98570.88;5063880;28;20021;-64
2021/05/25 07:42:06;;;;;;;1.95;0.90;;;;;;;8.47;83.28;98583.00;5063900;28;20255;-64
2021/05/25 07:44:31;;;;;;;4.25;1.58;;;;;;;8.43;83.14;98581.31;5063836;28;20020;-64
2021/05/25 07:46:57;;;;;;;2.28;0.85;;;;;;;8.47;83.76;98588.25;5063806;28;20316;-64
2021/05/25 07:49:23;;;;;;;6.55;1.48;;;;;;;8.41;83.43;98592.69;5063804;28;20024;-64
2021/05/25 07:51:49;;;;;;;6.70;1.40;;;;;;;8.29;84.21;98588.44;5063763;28;20028;-64
2021/05/25 07:54:14;;;;;;;3.25;1.00;;;;;;;8.32;84.22;98591.03;5063775;28;20255;-64
2021/05/25 07:56:40;;;;;;;5.38;1.10;;;;;;;8.38;83.56;98597.97;5063660;28;20021;-64
2021/05/25 07:59:05;;;;;;;6.40;1.65;;;;;;;8.49;83.48;98596.94;5063700;28;20021;-64
2021/05/25 08:01:31;;;;;;;4.55;1.33;;;;;;;8.50;83.84;98603.94;5063932;28;20024;-64
2021/05/25 08:03:56;;;;;;;4.35;1.13;;;;;;;8.56;83.66;98600.38;5063590;28;20017;-64
2021/05/25 08:06:21;;;;;;;3.90;1.13;;;;;;;8.69;83.92;98605.47;5063633;28;20086;-64
2021/05/25 08:08:47;;;;;;;3.88;1.10;;;;;;;8.82;82.03;98600.06;5063623;28;20021;-64
2021/05/25 08:11:13;;;;;;;6.40;1.02;;;;;;;8.82;82.34;98607.03;5063561;28;20028;-64
2021/05/25 08:13:39;;;;;;;3.20;1.05;;;;;;;8.89;82.08;98612.22;5063547;28;20025;-64
2021/05/25 08:16:05;;;;;;;5.68;1.27;;;;;;;8.90;82.25;98613.94;5063463;28;20258;-64
2021/05/25 08:21:15;;;;;;;5.38;1.33;;;;;;;9.01;82.22;98625.19;5067490;28;20219;-64
2021/05/25 08:23:42;;;;;;;6.82;1.33;;;;;;;9.26;81.48;98626.56;5067632;28;20146;-64
2021/05/25 08:26:08;;;;;;;3.42;1.27;;;;;;;9.32;81.60;98629.09;5067185;28;20354;-64
2021/05/25 08:28:34;;;;;;;1.52;0.77;;;;;;;9.48;81.41;98630.59;5067309;28;20049;-64
2021/05/25 08:30:59;;;;;;;4.78;1.30;;;;;;;9.60;80.34;98635.69;5067542;28;20320;-64
2021/05/25 08:33:25;;;;;;;4.70;1.02;;;;;;;9.76;80.39;98635.44;5067180;28;20028;-64
2021/05/25 08:35:51;;;;;;;3.20;1.10;;;;;;;9.98;79.95;98646.44;5067105;28;20017;-64
2021/05/25 08:38:21;;;;;;;4.68;1.23;;;;;;;10.05;79.81;98653.34;5067116;28;20083;-64
2021/05/25 08:40:47;;;;;;;3.75;1.10;;;;;;;9.98;77.96;98649.09;5067108;28;20111;-64
2021/05/25 08:43:13;;;;;;;5.95;1.50;;;;;;;10.04;77.38;98648.97;5067022;28;20051;-64
2021/05/25 08:45:38;;;;;;;3.60;1.27;;;;;;;10.09;78.27;98648.03;5066957;28;20021;-64
2021/05/25 08:48:04;;;;;;;5.05;1.48;;;;;;;10.15;78.36;98654.94;5067046;28;20021;-64
2021/05/25 08:50:30;;;;;;;6.22;1.00;;;;;;;10.23;77.65;98640.78;5066913;28;20027;-64
2021/05/25 08:53:04;;;;;;;9.00;1.13;;;;;;;10.31;78.34;98643.25;5066825;28;20232;-64
2021/05/25 08:55:31;;;;;;;7.65;1.40;;;;;;;10.39;77.95;98644.00;5066809;28;20074;-64
2021/05/25 08:57:57;;;;;;;8.68;1.48;;;;;;;10.24;77.95;98654.78;5067006;28;20037;-64
2021/05/25 09:00:25;;;;;;;5.43;1.23;;;;;;;10.17;77.53;98646.16;5066700;28;20323;-64
2021/05/25 09:02:52;;;;;;;7.03;1.73;;;;;;;10.09;78.05;98666.44;5066574;28;20044;-64
2021/05/25 09:05:19;;;;;;;5.78;1.50;;;;;;;10.07;79.70;98656.84;5066582;28;20028;-64
2021/05/25 09:07:47;;;;;;;4.10;1.13;;;;;;;10.05;78.27;98655.97;5066572;28;20100;-64
2021/05/25 09:10:36;;;;;;;6.40;1.17;;;;;;;9.89;79.77;98665.00;5066420;28;20070;-65
2021/05/25 09:13:04;;;;;;;5.13;1.20;;;;;;;9.91;79.91;98671.13;5066549;28;20020;-64
2021/05/25 09:15:38;;;;;;;6.40;1.60;;;;;;;9.87;80.76;98677.31;5066414;28;20025;-64
2021/05/25 09:18:18;;;;;;;7.15;1.92;;;;;;;10.09;79.20;98674.34;5065247;28;20045;-64
2021/05/25 09:20:48;;;;;;;7.32;1.75;;;;;;;10.11;80.53;98677.81;5066335;28;20320;-64
2021/05/25 09:23:31;;;;;;;6.20;1.15;;;;;;;10.13;79.21;98680.41;5066277;28;20214;-64
2021/05/25 09:26:20;;;;;;;6.80;1.50;;;;;;;10.16;80.09;98675.13;5066117;28;20036;-64
2021/05/25 09:29:04;;;;;;;5.70;1.60;;;;;;;10.36;81.04;98688.78;5066095;28;20232;-64
2021/05/25 09:31:35;;;;;;;5.95;1.30;;;;;;;10.65;79.54;98683.84;5065441;28;20025;-64
2021/05/25 09:34:14;;;;;;;5.68;1.50;;;;;;;10.93;78.30;98677.16;5066360;28;20260;-64
2021/05/25 09:37:03;;;;;;;7.20;1.77;;;;;;;11.18;78.58;98682.78;5065964;28;20021;-64
2021/05/25 09:39:31;;;;;;;4.22;0.85;;;;;;;11.33;76.47;98680.69;5066006;28;20033;-64
2021/05/25 09:42:04;;;;;;;4.53;1.02;;;;;;;11.52;75.99;98684.66;5065908;28;20046;-64
2021/05/25 09:44:30;;;;;;;3.38;1.00;;;;;;;11.73;74.48;98693.88;5066143;28;20319;-64
2021/05/25 09:47:01;;;;;;;4.97;1.10;;;;;;;11.93;74.63;98681.94;5065808;28;20029;-64
2021/05/25 09:49:27;;;;;;;5.10;1.35;;;;;;;11.82;72.67;98684.00;5066066;28;20047;-64
2021/05/25 09:52:07;;;;;;;1.45;0.90;;;;;;;11.82;73.84;98684.00;5065756;28;20048;-64
2021/05/25 09:54:33;;;;;;;6.38;1.20;;;;;;;11.73;71.71;98684.19;5065751;28;20040;-64
2021/05/25 09:57:11;;;;;;;4.07;1.08;;;;;;;11.34;72.18;98687.69;5065538;28;20190;-64
2021/05/25 09:59:39;;;;;;;6.72;1.25;;;;;;;11.17;73.90;98700.34;5065628;28;20044;-64
2021/05/25 10:02:19;;;;;;;9.35;1.15;;;;;;;11.30;72.82;98698.34;5065531;28;20201;-64
2021/05/25 10:05:05;;;;;;;5.88;1.40;;;;;;;11.24;74.27;98714.28;5065505;28;20300;-64
2021/05/25 10:07:33;;;;;;;7.35;1.20;;;;;;;11.48;73.48;98709.34;5065539;28;20197;-64
2021/05/25 10:09:59;;;;;;;5.20;1.33;;;;;;;11.83;73.77;98708.59;5065375;28;20316;-64
2021/05/25 10:12:28;;;;;;;7.85;1.20;;;;;;;12.05;73.03;98701.91;5065309;28;20048;-64
2021/05/25 10:14:54;;;;;;;6.65;1.08;;;;;;;12.05;70.45;98699.25;5065274;28;20331;-64
2021/05/25 10:20:09;;;;;;;5.10;1.30;;;;;;;11.99;71.14;98702.91;5065213;28;20027;-64
2021/05/25 10:22:36;;;;;;;4.10;1.00;;;;;;;12.00;69.37;98704.66;5065075;28;20035;-64
2021/05/25 10:25:04;;;;;;;3.15;1.00;;;;;;;11.92;69.67;98705.72;5064971;28;20079;-64
2021/05/25 10:27:29;;;;;;;7.57;1.05;;;;;;;11.82;69.82;98709.50;5065012;28;20028;-64
2021/05/25 10:29:55;;;;;;;4.57;1.13;;;;;;;11.84;70.14;98708.56;5064997;28;20025;-64
2021/05/25 10:32:26;;;;;;;6.50;1.33;;;;;;;12.04;68.66;98706.31;5064949;28;20028;-64
2021/05/25 10:34:53;;;;;;;5.72;1.65;;;;;;;11.98;71.44;98705.59;5065188;28;20036;-64
2021/05/25 10:37:20;;;;;;;4.78;1.33;;;;;;;12.17;71.16;98726.22;5065047;28;20045;-64
2021/05/25 10:39:50;;;;;;;5.32;1.30;;;;;;;12.63;69.13;98724.16;5065057;28;20331;-64
2021/05/25 10:42:22;;;;;;;6.55;1.33;;;;;;;13.89;67.13;98721.44;5064019;28;20027;-64
2021/05/25 10:44:52;;;;;;;5.65;0.93;;;;;;;14.63;65.30;98730.47;5064659;28;20028;-64
2021/05/25 10:47:27;;;;;;;5.57;0.90;;;;;;;14.99;62.27;98739.81;5064671;28;20092;-64
2021/05/25 10:49:56;;;;;;;4.72;1.27;;;;;;;15.26;61.53;98709.66;5064656;28;20089;-64
2021/05/25 10:52:23;;;;;;;2.95;0.82;;;;;;;14.69;60.93;98719.69;5064570;28;20029;-64
2021/05/25 10:54:54;;;;;;;3.10;0.73;;;;;;;14.94;60.41;98720.56;5063399;28;20029;-64
2021/05/25 10:57:37;;;;;;;4.30;1.33;;;;;;;14.47;60.54;98729.28;5064480;28;20021;-64
2021/05/25 11:00:13;;;;;;;5.43;0.90;;;;;;;14.03;61.13;98735.09;5064757;28;20017;-64
2021/05/25 11:03:17;;;;;;;4.18;0.98;;;;;;;13.61;59.33;98736.41;5064365;28;20216;-64
2021/05/25 11:05:52;;;;;;;5.80;0.90;;;;;;;13.14;63.24;98742.19;5064139;28;20025;-64
2021/05/25 11:08:18;;;;;;;4.10;1.17;;;;;;;13.19;61.83;98748.22;5064307;28;20020;-64
2021/05/25 11:10:50;;;;;;;3.30;1.00;;;;;;;13.52;63.41;98749.91;5064277;28;20051;-64
2021/05/25 11:13:20;;;;;;;4.40;0.93;;;;;;;13.77;62.67;98729.75;5064264;28;20343;-64
2021/05/25 11:16:06;;;;;;;4.72;0.93;;;;;;;13.66;60.84;98737.13;5064453;28;20051;-64
2021/05/25 11:18:59;;;;;;;2.30;0.80;;;;;;;13.57;60.65;98737.44;5064277;28;20021;-64
2021/05/25 11:21:44;;;;;;;5.47;1.20;;;;;;;14.39;61.75;98731.28;5064064;28;20394;-64
2021/05/25 11:24:43;;;;;;;3.13;0.77;;;;;;;15.04;62.21;98737.88;5064023;28;20057;-64
2021/05/25 11:27:13;;;;;;;4.07;0.70;;;;;;;14.46;57.08;98743.44;5064058;28;20096;-64
2021/05/25 11:29:52;;;;;;;6.85;1.10;;;;;;;13.79;58.62;98742.00;5063989;28;20031;-64
2021/05/25 11:32:20;;;;;;;5.35;1.00;;;;;;;13.59;62.13;98752.31;5063995;28;20096;-64
2021/05/25 11:34:58;;;;;;;10.55;1.38;;;;;;;14.14;62.23;98746.22;5063896;28;20084;-64
2021/05/25 11:37:24;;;;;;;7.25;0.95;;;;;;;14.41;65.15;98750.66;5063899;28;20051;-64
2021/05/25 11:39:52;;;;;;;4.80;1.10;;;;;;;14.73;62.61;98742.50;5063842;28;20029;-64
2021/05/25 11:42:23;;;;;;;4.15;0.93;;;;;;;14.78;61.31;98748.53;5063863;28;20107;-64
2021/05/25 11:44:50;;;;;;;4.07;0.80;;;;;;;14.95;59.16;98739.06;5062724;28;20021;-64
2021/05/25 11:47:16;;;;;;;5.32;1.00;;;;;;;15.32;61.54;98733.31;5064051;28;20021;-64
2021/05/25 11:49:43;;;;;;;4.10;0.80;;;;;;;15.42;58.81;98745.34;5063834;28;20036;-64